Lucy Hannah — WDC7682 — position and weather

sailwx.info

Track history (hours):
 
Tides and Currents Weather Stations Pressure Air Temp Water Temp Dewpoint Dewpoint Depression Visibility Wind Speed Wind Dir Waves Ship Positions

Lucy Hannah

Owner: D&S Marine Service,LLC., Houma, LA. More information available from US FCC via Universal Licensing System and Coast Guard Vessel Documentation Center.

Last reported at 2018-Feb-21 22:50 UTC. Time now 2018-Feb-22 01:22 UTC.
Position N 29°44' W 095°01'.

Length 19 m; draft 3 m.

Type: . MMSI: 367075110.

Date/timePositionNaut miles runAvg speedWind from/ knotsBaromVisibWave heightAir tempDewpointWater temp
2018-Feb-21 22:50N 29°44' W 095°01'0 0.1
2018-Feb-21 22:29N 29°44' W 095°01'1 2.8
2018-Feb-21 22:00N 29°44' W 095°03'1 0.0
2018-Feb-20 14:03N 29°44' W 095°01'0 0.0
2018-Feb-20 13:54N 29°44' W 095°01'0 0.0
2018-Feb-20 13:30N 29°44' W 095°01'0 0.0
2018-Feb-20 07:33N 29°44' W 095°01'0 0.0
2018-Feb-20 07:27N 29°44' W 095°01'0 0.0
2018-Feb-20 06:51N 29°44' W 095°01'0 0.0
2018-Feb-20 06:21N 29°44' W 095°01'0 0.0
2018-Feb-20 02:57N 29°44' W 095°01'0 0.0
2018-Feb-20 01:33N 29°44' W 095°01'0 0.0
2018-Feb-20 00:21N 29°44' W 095°01'0 0.0
2018-Feb-19 23:39N 29°44' W 095°01'0 0.1
2018-Feb-19 18:51N 29°44' W 095°01'1 3.8
2018-Feb-19 18:31N 29°42' W 095°01'3 5.3
2018-Feb-19 18:01N 29°41' W 094°59'3 6.2
2018-Feb-19 17:30N 29°38' W 094°58'3 5.5
2018-Feb-19 17:01N 29°35' W 094°56'3 6.6
2018-Feb-19 16:30N 29°32' W 094°54'4 6.3
2018-Feb-19 15:56N 29°29' W 094°52'3 6.2
2018-Feb-19 15:29N 29°27' W 094°50'3 6.8
2018-Feb-19 15:00N 29°24' W 094°49'2 4.6
2018-Feb-19 14:30N 29°23' W 094°47'2 4.4
2018-Feb-19 14:00N 29°24' W 094°45'1 2.9
2018-Feb-19 13:30N 29°25' W 094°44'1 1.2
2018-Feb-19 12:58N 29°26' W 094°43'0 0.0
2018-Feb-19 10:36N 29°26' W 094°43'0 0.0
2018-Feb-19 10:06N 29°26' W 094°43'0 0.0
2018-Feb-19 10:00N 29°26' W 094°43'0 0.0
2018-Feb-19 09:27N 29°26' W 094°43'0 0.0
2018-Feb-19 08:54N 29°26' W 094°43'0 0.0
2018-Feb-19 08:21N 29°26' W 094°43'0 0.0
2018-Feb-19 08:00N 29°26' W 094°43'0 0.0
2018-Feb-19 07:27N 29°26' W 094°43'0 0.0
2018-Feb-19 06:57N 29°26' W 094°43'0 0.0
2018-Feb-19 06:30N 29°26' W 094°43'0 0.0
2018-Feb-19 05:45N 29°26' W 094°43'0 0.0
2018-Feb-19 05:30N 29°26' W 094°43'0 0.0
2018-Feb-19 05:00N 29°26' W 094°43'0 0.0
2018-Feb-19 04:12N 29°26' W 094°43'0 0.0
2018-Feb-18 07:54N 29°26' W 094°43'0 0.0
2018-Feb-18 07:30N 29°26' W 094°43'2 0.1
2018-Feb-17 05:45N 29°27' W 094°41'0 0.0
2018-Feb-17 05:18N 29°27' W 094°41'0 0.0
2018-Feb-17 05:00N 29°27' W 094°41'0 0.0
2018-Feb-17 04:06N 29°27' W 094°41'0 0.0
2018-Feb-17 03:54N 29°27' W 094°41'0 0.0
2018-Feb-17 03:12N 29°27' W 094°41'0 0.0
2018-Feb-17 02:45N 29°27' W 094°41'0 0.0
2018-Feb-17 02:30N 29°27' W 094°41'0 0.0
2018-Feb-17 01:57N 29°27' W 094°41'0 0.0
2018-Feb-17 01:21N 29°27' W 094°41'0 0.0
2018-Feb-17 00:51N 29°27' W 094°41'0 0.0
2018-Feb-17 00:26N 29°27' W 094°41'0 0.1
2018-Feb-16 23:50N 29°27' W 094°41'0 0.1
2018-Feb-16 23:14N 29°27' W 094°41'0 0.0
2018-Feb-16 22:50N 29°27' W 094°41'0 0.1
2018-Feb-16 22:13N 29°27' W 094°41'13 3.5
2018-Feb-16 18:26N 29°33' W 094°28'1 2.3
2018-Feb-16 17:57N 29°34' W 094°27'2 4.3
2018-Feb-16 17:30N 29°35' W 094°25'2 4.1
2018-Feb-16 17:00N 29°36' W 094°23'2 4.7
2018-Feb-16 16:30N 29°37' W 094°20'3 5.4
2018-Feb-16 16:00N 29°38' W 094°18'3 5.5
2018-Feb-16 15:30N 29°40' W 094°15'2 4.7
2018-Feb-16 15:00N 29°41' W 094°12'2 4.0
2018-Feb-16 14:30N 29°41' W 094°10'1 2.8
2018-Feb-16 14:00N 29°42' W 094°09'2 3.3
2018-Feb-16 13:30N 29°43' W 094°07'0 0.1
2018-Feb-16 12:59N 29°43' W 094°07'0 0.0
2018-Feb-16 12:30N 29°43' W 094°07'0 0.0
2018-Feb-16 12:00N 29°43' W 094°07'0 0.0
2018-Feb-16 11:30N 29°43' W 094°07'0 0.0
2018-Feb-16 11:00N 29°43' W 094°07'0 0.0
2018-Feb-16 10:30N 29°43' W 094°07'0 0.0
2018-Feb-16 09:58N 29°43' W 094°07'0 0.0
2018-Feb-16 09:30N 29°43' W 094°07'0 0.0
2018-Feb-16 08:59N 29°43' W 094°07'0 0.0
2018-Feb-16 08:30N 29°43' W 094°07'0 0.0
2018-Feb-16 08:00N 29°43' W 094°07'0 0.0
2018-Feb-16 07:30N 29°43' W 094°07'0 0.0
2018-Feb-16 07:00N 29°43' W 094°07'0 0.0
2018-Feb-16 06:30N 29°43' W 094°07'0 0.0
2018-Feb-16 06:00N 29°43' W 094°07'0 0.0
2018-Feb-16 05:29N 29°43' W 094°07'0 0.0
2018-Feb-16 04:59N 29°43' W 094°07'0 0.0
2018-Feb-16 04:30N 29°43' W 094°07'0 0.0
2018-Feb-16 03:59N 29°43' W 094°07'0 0.0
2018-Feb-16 03:30N 29°43' W 094°07'0 0.0
2018-Feb-16 03:00N 29°43' W 094°07'0 0.0
2018-Feb-16 02:30N 29°43' W 094°07'0 0.0
2018-Feb-16 02:00N 29°43' W 094°07'0 0.0
2018-Feb-16 01:30N 29°43' W 094°07'0 0.0
2018-Feb-16 01:00N 29°43' W 094°07'0 0.0
2018-Feb-16 00:30N 29°43' W 094°07'0 0.7
2018-Feb-16 00:00N 29°43' W 094°07'2 3.2
2018-Feb-15 23:31N 29°44' W 094°06'3 6.0
2018-Feb-15 23:00N 29°46' W 094°03'3 5.8
2018-Feb-15 22:30N 29°48' W 094°00'3 5.6
2018-Feb-15 22:00N 29°49' W 093°58'3 5.1
2018-Feb-15 21:30N 29°52' W 093°56'3 6.1
2018-Feb-15 21:00N 29°54' W 093°54'3 6.6
2018-Feb-15 20:30N 29°57' W 093°52'2 4.8
2018-Feb-15 20:00N 29°59' W 093°53'3 6.6
2018-Feb-15 19:30N 29°60' W 093°57'2 4.9
2018-Feb-15 19:00N 30°01' W 093°59'3 5.5
2018-Feb-15 18:30N 30°02' W 094°02'2 4.3
2018-Feb-15 18:00N 30°04' W 094°03'0 0.1
2018-Feb-15 17:30N 30°04' W 094°03'1 1.3
2018-Feb-15 17:00N 30°04' W 094°04'1 1.6
2018-Feb-15 16:30N 30°04' W 094°03'0 0.0
2018-Feb-15 16:00N 30°04' W 094°03'1 1.2
2018-Feb-15 15:31N 30°04' W 094°03'1 1.4
2018-Feb-15 14:58N 30°05' W 094°04'0 0.0
2018-Feb-15 14:28N 30°05' W 094°04'0 0.0
2018-Feb-15 13:58N 30°05' W 094°04'0 0.0
2018-Feb-15 13:25N 30°05' W 094°04'0 0.0
2018-Feb-15 12:55N 30°05' W 094°04'0 0.0
2018-Feb-15 12:28N 30°05' W 094°04'0 0.0
2018-Feb-15 11:55N 30°05' W 094°04'0 0.0
2018-Feb-15 11:25N 30°05' W 094°04'0 0.0
2018-Feb-15 10:55N 30°05' W 094°04'0 0.0
2018-Feb-15 10:28N 30°05' W 094°04'0 0.0
2018-Feb-15 09:49N 30°05' W 094°04'0 0.0
2018-Feb-15 09:25N 30°05' W 094°04'0 0.0
2018-Feb-15 08:49N 30°05' W 094°04'0 0.0
2018-Feb-15 08:25N 30°05' W 094°04'0 0.0
2018-Feb-15 07:55N 30°05' W 094°04'0 0.0
2018-Feb-15 07:19N 30°05' W 094°04'0 0.0
2018-Feb-15 06:25N 30°05' W 094°04'0 0.0
2018-Feb-15 05:55N 30°05' W 094°04'0 0.0
2018-Feb-15 05:28N 30°05' W 094°04'0 0.0
2018-Feb-15 04:58N 30°05' W 094°04'0 0.0
2018-Feb-15 04:28N 30°05' W 094°04'0 0.0
2018-Feb-15 03:55N 30°05' W 094°04'0 0.0
2018-Feb-15 03:28N 30°05' W 094°04'1 3.0
2018-Feb-15 03:01N 30°04' W 094°02'3 5.0
2018-Feb-15 02:31N 30°01' W 094°02'3 5.4
2018-Feb-15 02:00N 30°01' W 093°59'3 5.4
2018-Feb-15 01:29N 29°59' W 093°56'3 6.2
2018-Feb-15 01:00N 29°59' W 093°52'1 2.3
2018-Feb-15 00:30N 29°58' W 093°51'0 0.5
2018-Feb-15 00:00N 29°58' W 093°51'3 6.9
2018-Feb-14 23:30N 29°59' W 093°55'2 3.1
2018-Feb-14 23:01N 29°60' W 093°57'0 0.0
2018-Feb-14 22:30N 29°60' W 093°57'0 0.0
2018-Feb-14 22:01N 29°60' W 093°57'0 0.1
2018-Feb-14 21:31N 29°60' W 093°57'0 0.1
2018-Feb-14 21:01N 29°60' W 093°57'3 5.3
2018-Feb-14 20:31N 30°01' W 093°60'3 6.4
2018-Feb-14 20:01N 30°03' W 094°02'2 3.1
2018-Feb-14 19:23N 30°04' W 094°04'0 0.0
2018-Feb-14 18:59N 30°04' W 094°04'0 0.0
2018-Feb-14 18:26N 30°04' W 094°04'0 0.0
2018-Feb-14 17:59N 30°04' W 094°04'1 1.4
2018-Feb-14 17:30N 30°04' W 094°03'0 0.0
2018-Feb-14 17:00N 30°04' W 094°03'0 0.0
2018-Feb-14 16:30N 30°04' W 094°03'0 0.0
2018-Feb-14 16:00N 30°04' W 094°03'0 0.0
2018-Feb-14 15:30N 30°04' W 094°03'0 0.0
2018-Feb-14 15:00N 30°04' W 094°03'0 0.0
2018-Feb-14 14:30N 30°04' W 094°03'0 0.0
2018-Feb-14 14:00N 30°04' W 094°03'0 0.0
2018-Feb-14 13:28N 30°04' W 094°03'0 0.0
2018-Feb-14 13:00N 30°04' W 094°03'0 0.0
2018-Feb-14 12:30N 30°04' W 094°03'0 0.0
2018-Feb-14 12:00N 30°04' W 094°03'0 0.0
2018-Feb-14 11:24N 30°04' W 094°03'0 0.0
2018-Feb-14 11:00N 30°04' W 094°03'0 0.0
2018-Feb-14 10:30N 30°04' W 094°03'0 0.0
2018-Feb-14 10:00N 30°04' W 094°03'0 0.0
2018-Feb-14 09:30N 30°04' W 094°03'0 0.0
2018-Feb-14 08:54N 30°04' W 094°03'0 0.0
2018-Feb-14 08:30N 30°04' W 094°03'0 0.0
2018-Feb-14 08:00N 30°04' W 094°03'0 0.0
2018-Feb-14 07:25N 30°04' W 094°03'0 0.0
2018-Feb-14 06:52N 30°04' W 094°03'0 0.0
2018-Feb-14 06:28N 30°04' W 094°03'0 0.0
2018-Feb-14 05:58N 30°04' W 094°03'0 0.0
2018-Feb-14 05:28N 30°04' W 094°03'0 0.0
2018-Feb-14 04:55N 30°04' W 094°03'0 0.0
2018-Feb-14 04:28N 30°04' W 094°03'0 0.0
2018-Feb-14 03:58N 30°04' W 094°03'0 0.0
2018-Feb-14 03:28N 30°04' W 094°03'0 0.0
2018-Feb-14 02:58N 30°04' W 094°03'0 0.0
2018-Feb-14 02:28N 30°04' W 094°03'0 0.0
2018-Feb-14 01:58N 30°04' W 094°03'0 0.0
2018-Feb-14 01:28N 30°04' W 094°03'0 0.0
2018-Feb-14 00:58N 30°04' W 094°03'0 0.0
2018-Feb-14 00:30N 30°04' W 094°03'1 1.4
2018-Feb-13 23:59N 30°04' W 094°03'0 0.0
2018-Feb-13 23:29N 30°04' W 094°03'0 0.1
2018-Feb-13 23:00N 30°04' W 094°03'1 1.5
2018-Feb-13 22:30N 30°04' W 094°03'1 1.9
2018-Feb-13 22:00N 30°04' W 094°02'3 5.6
2018-Feb-13 21:30N 30°01' W 094°01'3 5.3
2018-Feb-13 21:00N 30°01' W 093°58'2 4.9
2018-Feb-13 20:30N 29°59' W 093°56'3 6.6
2018-Feb-13 20:00N 29°59' W 093°52'3 5.9
2018-Feb-13 19:30N 29°56' W 093°52'3 5.6
2018-Feb-13 19:00N 29°54' W 093°54'3 5.1
2018-Feb-13 18:30N 29°52' W 093°56'3 5.1
2018-Feb-13 18:00N 29°49' W 093°58'1 2.0
2018-Feb-13 17:30N 29°49' W 093°59'2 4.7
2018-Feb-13 17:00N 29°47' W 094°01'3 5.6
2018-Feb-13 16:31N 29°46' W 094°03'2 4.7
2018-Feb-13 16:00N 29°44' W 094°05'2 5.0
2018-Feb-13 15:30N 29°43' W 094°08'3 5.1
2018-Feb-13 15:00N 29°41' W 094°10'2 4.7
2018-Feb-13 14:30N 29°41' W 094°13'2 3.6
2018-Feb-13 13:59N 29°40' W 094°15'3 4.8
2018-Feb-13 13:28N 29°39' W 094°17'5 4.8
2018-Feb-13 12:22N 29°36' W 094°22'2 4.2
2018-Feb-13 12:00N 29°36' W 094°24'2 3.5
2018-Feb-13 11:28N 29°34' W 094°25'2 3.2
2018-Feb-13 10:56N 29°34' W 094°27'23 2.5
2018-Feb-13 01:48N 29°31' W 094°53'2 6.1
2018-Feb-13 01:30N 29°32' W 094°54'3 6.6
2018-Feb-13 01:00N 29°35' W 094°56'3 6.8
2018-Feb-13 00:30N 29°38' W 094°58'3 6.9
2018-Feb-13 00:00N 29°41' W 094°59'4 5.3
2018-Feb-12 23:20N 29°44' W 095°02'1 0.2
2018-Feb-12 18:50N 29°44' W 095°03'2 4.4
2018-Feb-12 18:16N 29°43' W 095°01'1 4.4
2018-Feb-12 18:00N 29°42' W 095°00'2 4.7
2018-Feb-12 17:30N 29°40' W 094°59'3 6.3
2018-Feb-12 17:00N 29°37' W 094°57'3 6.8
2018-Feb-12 16:30N 29°34' W 094°55'23 2.1
2018-Feb-12 05:19N 29°32' W 094°29'5 3.8
2018-Feb-12 04:06N 29°35' W 094°25'1 4.4
2018-Feb-12 03:53N 29°36' W 094°24'2 3.5
2018-Feb-12 03:25N 29°36' W 094°22'2 4.8
2018-Feb-12 03:00N 29°37' W 094°20'2 3.9
2018-Feb-12 02:29N 29°38' W 094°18'2 3.7
2018-Feb-12 02:00N 29°39' W 094°16'2 3.2
2018-Feb-12 01:30N 29°40' W 094°15'2 5.0
2018-Feb-12 01:00N 29°41' W 094°12'2 4.9
2018-Feb-12 00:30N 29°41' W 094°09'3 5.3
2018-Feb-12 00:00N 29°43' W 094°07'2 4.8
2018-Feb-11 23:30N 29°45' W 094°05'3 5.4
2018-Feb-11 23:01N 29°46' W 094°02'  
Track history (hours):
 
Tides and Currents Weather Stations Pressure Air Temp Water Temp Dewpoint Dewpoint Depression Visibility Wind Speed Wind Dir Waves Ship Positions

Lucy Hannah

Owner: D&S Marine Service,LLC., Houma, LA. More information available from US FCC via Universal Licensing System and Coast Guard Vessel Documentation Center.

Last reported at 2018-Feb-21 22:50 UTC. Time now 2018-Feb-22 01:22 UTC.
Position N 29°44' W 095°01'.

Length 19 m; draft 3 m.

Type: . MMSI: 367075110.

Date/timePositionNaut miles runAvg speedWind from/ knotsBaromVisibWave heightAir tempDewpointWater temp
2018-Feb-21 22:50N 29°44' W 095°01'0 0.1
2018-Feb-21 22:29N 29°44' W 095°01'1 2.8
2018-Feb-21 22:00N 29°44' W 095°03'1 0.0
2018-Feb-20 14:03N 29°44' W 095°01'0 0.0
2018-Feb-20 13:54N 29°44' W 095°01'0 0.0
2018-Feb-20 13:30N 29°44' W 095°01'0 0.0
2018-Feb-20 07:33N 29°44' W 095°01'0 0.0
2018-Feb-20 07:27N 29°44' W 095°01'0 0.0
2018-Feb-20 06:51N 29°44' W 095°01'0 0.0
2018-Feb-20 06:21N 29°44' W 095°01'0 0.0
2018-Feb-20 02:57N 29°44' W 095°01'0 0.0
2018-Feb-20 01:33N 29°44' W 095°01'0 0.0
2018-Feb-20 00:21N 29°44' W 095°01'0 0.0
2018-Feb-19 23:39N 29°44' W 095°01'0 0.1
2018-Feb-19 18:51N 29°44' W 095°01'1 3.8
2018-Feb-19 18:31N 29°42' W 095°01'3 5.3
2018-Feb-19 18:01N 29°41' W 094°59'3 6.2
2018-Feb-19 17:30N 29°38' W 094°58'3 5.5
2018-Feb-19 17:01N 29°35' W 094°56'3 6.6
2018-Feb-19 16:30N 29°32' W 094°54'4 6.3
2018-Feb-19 15:56N 29°29' W 094°52'3 6.2
2018-Feb-19 15:29N 29°27' W 094°50'3 6.8
2018-Feb-19 15:00N 29°24' W 094°49'2 4.6
2018-Feb-19 14:30N 29°23' W 094°47'2 4.4
2018-Feb-19 14:00N 29°24' W 094°45'1 2.9
2018-Feb-19 13:30N 29°25' W 094°44'1 1.2
2018-Feb-19 12:58N 29°26' W 094°43'0 0.0
2018-Feb-19 10:36N 29°26' W 094°43'0 0.0
2018-Feb-19 10:06N 29°26' W 094°43'0 0.0
2018-Feb-19 10:00N 29°26' W 094°43'0 0.0
2018-Feb-19 09:27N 29°26' W 094°43'0 0.0
2018-Feb-19 08:54N 29°26' W 094°43'0 0.0
2018-Feb-19 08:21N 29°26' W 094°43'0 0.0
2018-Feb-19 08:00N 29°26' W 094°43'0 0.0
2018-Feb-19 07:27N 29°26' W 094°43'0 0.0
2018-Feb-19 06:57N 29°26' W 094°43'0 0.0
2018-Feb-19 06:30N 29°26' W 094°43'0 0.0
2018-Feb-19 05:45N 29°26' W 094°43'0 0.0
2018-Feb-19 05:30N 29°26' W 094°43'0 0.0
2018-Feb-19 05:00N 29°26' W 094°43'0 0.0
2018-Feb-19 04:12N 29°26' W 094°43'0 0.0
2018-Feb-18 07:54N 29°26' W 094°43'0 0.0
2018-Feb-18 07:30N 29°26' W 094°43'2 0.1
2018-Feb-17 05:45N 29°27' W 094°41'0 0.0
2018-Feb-17 05:18N 29°27' W 094°41'0 0.0
2018-Feb-17 05:00N 29°27' W 094°41'0 0.0
2018-Feb-17 04:06N 29°27' W 094°41'0 0.0
2018-Feb-17 03:54N 29°27' W 094°41'0 0.0
2018-Feb-17 03:12N 29°27' W 094°41'0 0.0
2018-Feb-17 02:45N 29°27' W 094°41'0 0.0
2018-Feb-17 02:30N 29°27' W 094°41'0 0.0
2018-Feb-17 01:57N 29°27' W 094°41'0 0.0
2018-Feb-17 01:21N 29°27' W 094°41'0 0.0
2018-Feb-17 00:51N 29°27' W 094°41'0 0.0
2018-Feb-17 00:26N 29°27' W 094°41'0 0.1
2018-Feb-16 23:50N 29°27' W 094°41'0 0.1
2018-Feb-16 23:14N 29°27' W 094°41'0 0.0
2018-Feb-16 22:50N 29°27' W 094°41'0 0.1
2018-Feb-16 22:13N 29°27' W 094°41'13 3.5
2018-Feb-16 18:26N 29°33' W 094°28'1 2.3
2018-Feb-16 17:57N 29°34' W 094°27'2 4.3
2018-Feb-16 17:30N 29°35' W 094°25'2 4.1
2018-Feb-16 17:00N 29°36' W 094°23'2 4.7
2018-Feb-16 16:30N 29°37' W 094°20'3 5.4
2018-Feb-16 16:00N 29°38' W 094°18'3 5.5
2018-Feb-16 15:30N 29°40' W 094°15'2 4.7
2018-Feb-16 15:00N 29°41' W 094°12'2 4.0
2018-Feb-16 14:30N 29°41' W 094°10'1 2.8
2018-Feb-16 14:00N 29°42' W 094°09'2 3.3
2018-Feb-16 13:30N 29°43' W 094°07'0 0.1
2018-Feb-16 12:59N 29°43' W 094°07'0 0.0
2018-Feb-16 12:30N 29°43' W 094°07'0 0.0
2018-Feb-16 12:00N 29°43' W 094°07'0 0.0
2018-Feb-16 11:30N 29°43' W 094°07'0 0.0
2018-Feb-16 11:00N 29°43' W 094°07'0 0.0
2018-Feb-16 10:30N 29°43' W 094°07'0 0.0
2018-Feb-16 09:58N 29°43' W 094°07'0 0.0
2018-Feb-16 09:30N 29°43' W 094°07'0 0.0
2018-Feb-16 08:59N 29°43' W 094°07'0 0.0
2018-Feb-16 08:30N 29°43' W 094°07'0 0.0
2018-Feb-16 08:00N 29°43' W 094°07'0 0.0
2018-Feb-16 07:30N 29°43' W 094°07'0 0.0
2018-Feb-16 07:00N 29°43' W 094°07'0 0.0
2018-Feb-16 06:30N 29°43' W 094°07'0 0.0
2018-Feb-16 06:00N 29°43' W 094°07'0 0.0
2018-Feb-16 05:29N 29°43' W 094°07'0 0.0
2018-Feb-16 04:59N 29°43' W 094°07'0 0.0
2018-Feb-16 04:30N 29°43' W 094°07'0 0.0
2018-Feb-16 03:59N 29°43' W 094°07'0 0.0
2018-Feb-16 03:30N 29°43' W 094°07'0 0.0
2018-Feb-16 03:00N 29°43' W 094°07'0 0.0
2018-Feb-16 02:30N 29°43' W 094°07'0 0.0
2018-Feb-16 02:00N 29°43' W 094°07'0 0.0
2018-Feb-16 01:30N 29°43' W 094°07'0 0.0
2018-Feb-16 01:00N 29°43' W 094°07'0 0.0
2018-Feb-16 00:30N 29°43' W 094°07'0 0.7
2018-Feb-16 00:00N 29°43' W 094°07'2 3.2
2018-Feb-15 23:31N 29°44' W 094°06'3 6.0
2018-Feb-15 23:00N 29°46' W 094°03'3 5.8
2018-Feb-15 22:30N 29°48' W 094°00'3 5.6
2018-Feb-15 22:00N 29°49' W 093°58'3 5.1
2018-Feb-15 21:30N 29°52' W 093°56'3 6.1
2018-Feb-15 21:00N 29°54' W 093°54'3 6.6
2018-Feb-15 20:30N 29°57' W 093°52'2 4.8
2018-Feb-15 20:00N 29°59' W 093°53'3 6.6
2018-Feb-15 19:30N 29°60' W 093°57'2 4.9
2018-Feb-15 19:00N 30°01' W 093°59'3 5.5
2018-Feb-15 18:30N 30°02' W 094°02'2 4.3
2018-Feb-15 18:00N 30°04' W 094°03'0 0.1
2018-Feb-15 17:30N 30°04' W 094°03'1 1.3
2018-Feb-15 17:00N 30°04' W 094°04'1 1.6
2018-Feb-15 16:30N 30°04' W 094°03'0 0.0
2018-Feb-15 16:00N 30°04' W 094°03'1 1.2
2018-Feb-15 15:31N 30°04' W 094°03'1 1.4
2018-Feb-15 14:58N 30°05' W 094°04'0 0.0
2018-Feb-15 14:28N 30°05' W 094°04'0 0.0
2018-Feb-15 13:58N 30°05' W 094°04'0 0.0
2018-Feb-15 13:25N 30°05' W 094°04'0 0.0
2018-Feb-15 12:55N 30°05' W 094°04'0 0.0
2018-Feb-15 12:28N 30°05' W 094°04'0 0.0
2018-Feb-15 11:55N 30°05' W 094°04'0 0.0
2018-Feb-15 11:25N 30°05' W 094°04'0 0.0
2018-Feb-15 10:55N 30°05' W 094°04'0 0.0
2018-Feb-15 10:28N 30°05' W 094°04'0 0.0
2018-Feb-15 09:49N 30°05' W 094°04'0 0.0
2018-Feb-15 09:25N 30°05' W 094°04'0 0.0
2018-Feb-15 08:49N 30°05' W 094°04'0 0.0
2018-Feb-15 08:25N 30°05' W 094°04'0 0.0
2018-Feb-15 07:55N 30°05' W 094°04'0 0.0
2018-Feb-15 07:19N 30°05' W 094°04'0 0.0
2018-Feb-15 06:25N 30°05' W 094°04'0 0.0
2018-Feb-15 05:55N 30°05' W 094°04'0 0.0
2018-Feb-15 05:28N 30°05' W 094°04'0 0.0
2018-Feb-15 04:58N 30°05' W 094°04'0 0.0
2018-Feb-15 04:28N 30°05' W 094°04'0 0.0
2018-Feb-15 03:55N 30°05' W 094°04'0 0.0
2018-Feb-15 03:28N 30°05' W 094°04'1 3.0
2018-Feb-15 03:01N 30°04' W 094°02'3 5.0
2018-Feb-15 02:31N 30°01' W 094°02'3 5.4
2018-Feb-15 02:00N 30°01' W 093°59'3 5.4
2018-Feb-15 01:29N 29°59' W 093°56'3 6.2
2018-Feb-15 01:00N 29°59' W 093°52'1 2.3
2018-Feb-15 00:30N 29°58' W 093°51'0 0.5
2018-Feb-15 00:00N 29°58' W 093°51'3 6.9
2018-Feb-14 23:30N 29°59' W 093°55'2 3.1
2018-Feb-14 23:01N 29°60' W 093°57'0 0.0
2018-Feb-14 22:30N 29°60' W 093°57'0 0.0
2018-Feb-14 22:01N 29°60' W 093°57'0 0.1
2018-Feb-14 21:31N 29°60' W 093°57'0 0.1
2018-Feb-14 21:01N 29°60' W 093°57'3 5.3
2018-Feb-14 20:31N 30°01' W 093°60'3 6.4
2018-Feb-14 20:01N 30°03' W 094°02'2 3.1
2018-Feb-14 19:23N 30°04' W 094°04'0 0.0
2018-Feb-14 18:59N 30°04' W 094°04'0 0.0
2018-Feb-14 18:26N 30°04' W 094°04'0 0.0
2018-Feb-14 17:59N 30°04' W 094°04'1 1.4
2018-Feb-14 17:30N 30°04' W 094°03'0 0.0
2018-Feb-14 17:00N 30°04' W 094°03'0 0.0
2018-Feb-14 16:30N 30°04' W 094°03'0 0.0
2018-Feb-14 16:00N 30°04' W 094°03'0 0.0
2018-Feb-14 15:30N 30°04' W 094°03'0 0.0
2018-Feb-14 15:00N 30°04' W 094°03'0 0.0
2018-Feb-14 14:30N 30°04' W 094°03'0 0.0
2018-Feb-14 14:00N 30°04' W 094°03'0 0.0
2018-Feb-14 13:28N 30°04' W 094°03'0 0.0
2018-Feb-14 13:00N 30°04' W 094°03'0 0.0
2018-Feb-14 12:30N 30°04' W 094°03'0 0.0
2018-Feb-14 12:00N 30°04' W 094°03'0 0.0
2018-Feb-14 11:24N 30°04' W 094°03'0 0.0
2018-Feb-14 11:00N 30°04' W 094°03'0 0.0
2018-Feb-14 10:30N 30°04' W 094°03'0 0.0
2018-Feb-14 10:00N 30°04' W 094°03'0 0.0
2018-Feb-14 09:30N 30°04' W 094°03'0 0.0
2018-Feb-14 08:54N 30°04' W 094°03'0 0.0
2018-Feb-14 08:30N 30°04' W 094°03'0 0.0
2018-Feb-14 08:00N 30°04' W 094°03'0 0.0
2018-Feb-14 07:25N 30°04' W 094°03'0 0.0
2018-Feb-14 06:52N 30°04' W 094°03'0 0.0
2018-Feb-14 06:28N 30°04' W 094°03'0 0.0
2018-Feb-14 05:58N 30°04' W 094°03'0 0.0
2018-Feb-14 05:28N 30°04' W 094°03'0 0.0
2018-Feb-14 04:55N 30°04' W 094°03'0 0.0
2018-Feb-14 04:28N 30°04' W 094°03'0 0.0
2018-Feb-14 03:58N 30°04' W 094°03'0 0.0
2018-Feb-14 03:28N 30°04' W 094°03'0 0.0
2018-Feb-14 02:58N 30°04' W 094°03'0 0.0
2018-Feb-14 02:28N 30°04' W 094°03'0 0.0
2018-Feb-14 01:58N 30°04' W 094°03'0 0.0
2018-Feb-14 01:28N 30°04' W 094°03'0 0.0
2018-Feb-14 00:58N 30°04' W 094°03'0 0.0
2018-Feb-14 00:30N 30°04' W 094°03'1 1.4
2018-Feb-13 23:59N 30°04' W 094°03'0 0.0
2018-Feb-13 23:29N 30°04' W 094°03'0 0.1
2018-Feb-13 23:00N 30°04' W 094°03'1 1.5
2018-Feb-13 22:30N 30°04' W 094°03'1 1.9
2018-Feb-13 22:00N 30°04' W 094°02'3 5.6
2018-Feb-13 21:30N 30°01' W 094°01'3 5.3
2018-Feb-13 21:00N 30°01' W 093°58'2 4.9
2018-Feb-13 20:30N 29°59' W 093°56'3 6.6
2018-Feb-13 20:00N 29°59' W 093°52'3 5.9
2018-Feb-13 19:30N 29°56' W 093°52'3 5.6
2018-Feb-13 19:00N 29°54' W 093°54'3 5.1
2018-Feb-13 18:30N 29°52' W 093°56'3 5.1
2018-Feb-13 18:00N 29°49' W 093°58'1 2.0
2018-Feb-13 17:30N 29°49' W 093°59'2 4.7
2018-Feb-13 17:00N 29°47' W 094°01'3 5.6
2018-Feb-13 16:31N 29°46' W 094°03'2 4.7
2018-Feb-13 16:00N 29°44' W 094°05'2 5.0
2018-Feb-13 15:30N 29°43' W 094°08'3 5.1
2018-Feb-13 15:00N 29°41' W 094°10'2 4.7
2018-Feb-13 14:30N 29°41' W 094°13'2 3.6
2018-Feb-13 13:59N 29°40' W 094°15'3 4.8
2018-Feb-13 13:28N 29°39' W 094°17'5 4.8
2018-Feb-13 12:22N 29°36' W 094°22'2 4.2
2018-Feb-13 12:00N 29°36' W 094°24'2 3.5
2018-Feb-13 11:28N 29°34' W 094°25'2 3.2
2018-Feb-13 10:56N 29°34' W 094°27'23 2.5
2018-Feb-13 01:48N 29°31' W 094°53'2 6.1
2018-Feb-13 01:30N 29°32' W 094°54'3 6.6
2018-Feb-13 01:00N 29°35' W 094°56'3 6.8
2018-Feb-13 00:30N 29°38' W 094°58'3 6.9
2018-Feb-13 00:00N 29°41' W 094°59'4 5.3
2018-Feb-12 23:20N 29°44' W 095°02'1 0.2
2018-Feb-12 18:50N 29°44' W 095°03'2 4.4
2018-Feb-12 18:16N 29°43' W 095°01'1 4.4
2018-Feb-12 18:00N 29°42' W 095°00'2 4.7
2018-Feb-12 17:30N 29°40' W 094°59'3 6.3
2018-Feb-12 17:00N 29°37' W 094°57'3 6.8
2018-Feb-12 16:30N 29°34' W 094°55'23 2.1
2018-Feb-12 05:19N 29°32' W 094°29'5 3.8
2018-Feb-12 04:06N 29°35' W 094°25'1 4.4
2018-Feb-12 03:53N 29°36' W 094°24'2 3.5
2018-Feb-12 03:25N 29°36' W 094°22'2 4.8
2018-Feb-12 03:00N 29°37' W 094°20'2 3.9
2018-Feb-12 02:29N 29°38' W 094°18'2 3.7
2018-Feb-12 02:00N 29°39' W 094°16'2 3.2
2018-Feb-12 01:30N 29°40' W 094°15'2 5.0
2018-Feb-12 01:00N 29°41' W 094°12'2 4.9
2018-Feb-12 00:30N 29°41' W 094°09'3 5.3
2018-Feb-12 00:00N 29°43' W 094°07'2 4.8
2018-Feb-11 23:30N 29°45' W 094°05'3 5.4
2018-Feb-11 23:01N 29°46' W 094°02'  

Dump ship's entire track history